Terminal Aerodrome Forecast
Issued by NWS

Home | Current Version | Previous Version | Text Only | Print | Product List | Glossary On
Versions: 1 2 3 4 5 6 7 8 9 10 11 12 13 14 15 16 17 18 19 20 21 22 23 24 25 26
728
FTUS43 KDLH 201745
TAFBRD
TAF
KBRD 201745Z 2018/2118 13006KT 6SM BR OVC004
     FM210000 14005KT 2SM -DZ BR OVC003
     FM210900 10005KT 3SM -FZDZ OVC004=

USA.gov is the U.S. government's official web portal to all federal, state and local government web resources and services.